createdAt,value
2017-03-26T00:07:27.276Z,12
2017-03-26T00:17:27.312Z,10
2017-03-26T00:27:27.194Z,8
2017-03-26T00:37:27.269Z,10
2017-03-26T00:47:27.235Z,12
2017-03-26T00:57:27.237Z,18
2017-03-26T01:07:27.319Z,16
2017-03-26T01:17:27.176Z,13
2017-03-26T01:27:27.271Z,13
2017-03-26T01:37:27.218Z,13
2017-03-26T01:47:27.190Z,19
2017-03-26T01:57:27.239Z,23
2017-03-26T02:07:27.208Z,23
2017-03-26T02:17:27.172Z,26
2017-03-26T02:27:27.218Z,21
2017-03-26T02:37:27.224Z,20
2017-03-26T02:47:27.168Z,18
2017-03-26T02:57:27.192Z,16
2017-03-26T03:07:27.166Z,25
2017-03-26T03:17:27.197Z,22
2017-03-26T03:27:27.220Z,17
2017-03-26T03:37:27.162Z,18
2017-03-26T03:47:27.227Z,21
2017-03-26T03:57:27.223Z,22
2017-03-26T04:07:27.125Z,22
2017-03-26T04:17:27.239Z,20
2017-03-26T04:27:27.220Z,23
2017-03-26T04:37:27.231Z,22
2017-03-26T04:47:27.165Z,30
2017-03-26T04:57:27.142Z,32
2017-03-26T05:07:27.217Z,30
2017-03-26T05:17:27.165Z,33
2017-03-26T05:27:27.135Z,32
2017-03-26T05:37:27.122Z,32
2017-03-26T05:47:27.173Z,34
2017-03-26T05:57:27.162Z,27
2017-03-26T06:07:27.189Z,33
2017-03-26T06:17:27.230Z,27
2017-03-26T06:27:27.188Z,25
2017-03-26T06:37:27.273Z,36
2017-03-26T06:47:27.233Z,29
2017-03-26T06:57:27.269Z,32
2017-03-26T07:07:27.257Z,24
2017-03-26T07:17:27.323Z,30
2017-03-26T07:27:27.295Z,30
2017-03-26T07:37:27.263Z,25
2017-03-26T07:47:27.249Z,23
2017-03-26T07:57:27.222Z,21
2017-03-26T08:07:27.241Z,24
2017-03-26T08:17:27.257Z,23
2017-03-26T08:27:27.304Z,23
2017-03-26T08:37:27.290Z,25
2017-03-26T08:47:27.353Z,21
2017-03-26T08:57:27.286Z,22
2017-03-26T09:07:27.313Z,19
2017-03-26T09:17:27.311Z,22
2017-03-26T09:27:27.312Z,16
2017-03-26T09:37:27.343Z,16
2017-03-26T09:47:27.338Z,15
2017-03-26T09:57:27.349Z,16
2017-03-26T10:07:27.406Z,16
2017-03-26T10:17:27.504Z,16
2017-03-26T10:27:27.358Z,12
2017-03-26T10:37:27.418Z,11
2017-03-26T10:47:27.405Z,8
2017-03-26T10:57:27.432Z,12
2017-03-26T11:07:27.508Z,9
2017-03-26T11:17:27.452Z,9
2017-03-26T11:27:27.431Z,7
2017-03-26T11:37:27.506Z,11
2017-03-26T11:47:27.437Z,10
2017-03-26T11:57:27.422Z,11
2017-03-26T12:46:50.268Z,15
2017-03-26T12:56:50.149Z,15
2017-03-26T13:06:50.231Z,14
2017-03-26T13:16:50.373Z,10
2017-03-26T13:26:50.141Z,9
2017-03-26T13:36:50.296Z,11
2017-03-26T13:46:50.355Z,10
2017-03-26T13:56:50.234Z,12
2017-03-26T14:06:50.370Z,13
2017-03-26T14:16:51.874Z,13
2017-03-26T14:26:50.245Z,12
2017-03-26T14:36:50.699Z,13
2017-03-26T14:46:50.310Z,10
2017-03-26T14:56:50.504Z,14
2017-03-26T15:06:50.360Z,13
2017-03-26T15:16:51.059Z,14
2017-03-26T15:26:50.938Z,16
2017-03-26T15:36:50.355Z,13
2017-03-26T15:46:50.393Z,16
2017-03-26T15:56:50.318Z,18
2017-03-26T16:06:50.360Z,17
2017-03-26T16:16:50.489Z,20
